Observations for GUIDONIA IT-AFB, Italy (LIRG)

LIRG 230455Z 05003KT CAVOK 11/11 Q1017  
LIRG 230455Z 05003KT CAVOK 11/11 Q1017 RMK FEW FEW070 MON NE LIB VIS MIN 9999 BLU
LIRG 221755Z 25006KT 9999 FEW030 19/13 Q1016
LIRG 221755Z 25006KT 9999 FEW030 19/13 Q1016 RMK FEW MON NE CLD CIME VAR RAPID VIS MIN 9999 BLU
LIRG 221655Z 22008KT 9999 FEW035 20/12 Q1016
LIRG 221655Z 22008KT 9999 FEW035 20/12 Q1016 RMK FEW MON NE LIB NC VIS MIN 9999BLU
LIRG 221555Z 22007KT 9999 FEW035 20/12 Q1016
LIRG 221555Z 22007KT 9999 FEW035 20/12 Q1016 RMK FEW MON NE LIB NC VIS MIN 9999BLU
LIRG 221455Z 21010KT 9999 FEW035 21/12 Q1016
LIRG 221455Z 21010KT 9999 FEW035 21/12 Q1016 RMK FEW MON NE LIB NC VIS MIN 9999BLU
LIRG 221355Z 23010KT 9999 SCT035 21/12 Q1016
LIRG 221355Z 23010KT 9999 SCT035 21/12 Q1016 RMK SCT MON NE CLD CIME NC VIS MIN9999 BLU
LIRG 221255Z 21010KT 9999 FEW030TCU SCT035 22/12 Q1016  
LIRG 221255Z 21010KT 9999 FEW030TCU SCT035 22/12 Q1016 RMK BKN MON NE CLD CIME NC VIS MIN 9999 BLU
LIRG 221155Z 24008KT 9999 FEW030TCU SCT035 21/12 Q1016  
LIRG 221155Z 24008KT 9999 FEW030TCU SCT035 21/12 Q1016 RMK BKN MON NE CLD CIME NC VIS MIN 9999 BLU
LIRG 221055Z 22006KT 9999 SCT030 SCT035 21/13 Q1017 
LIRG 221055Z 22006KT 9999 SCT030 SCT035 21/13 Q1017 RMK BKN MON NE CLD CIME NC VIS MIN 9999 BLU
LIRG 220955Z 19003KT 9999 BKN030 21/11 Q1017
LIRG 220955Z 19003KT 9999 BKN030 21/11 Q1017 RMK BKN MON NE CLD CIME NC VIS MIN9999 BLU
LIRG 220855Z VRB02KT 9999 SCT030 20/12 Q1017
LIRG 220855Z VRB02KT 9999 SCT030 20/12 Q1017 RMK SCT MON NE CLD CIME VAR RAPID VIS MIN 9999 BLU
LIRG 220755Z 18007KT 9999 FEW030 19/12 Q1017
LIRG 220755Z 18007KT 9999 FEW030 19/12 Q1017 RMK FEW MON NE LIB NC VIS MIN 9999BLU
LIRG 220655Z 15007KT CAVOK 18/11 Q1017  
LIRG 220555Z 13007KT 9999 FEW035 16/12 Q1016
LIRG 220455Z 05003KT 9999 SCT035 11/11 Q1016